sensor_id;sensor_type;location;lat;lon;timestamp;temperature;humidity
4795;DHT22;2411;47.060;15.064;2022-07-18T00:00:54;14.40;1.00
4795;DHT22;2411;47.060;15.064;2022-07-18T00:03:21;14.30;1.00
4795;DHT22;2411;47.060;15.064;2022-07-18T00:05:48;14.20;1.00
4795;DHT22;2411;47.060;15.064;2022-07-18T00:08:15;14.20;1.00
4795;DHT22;2411;47.060;15.064;2022-07-18T00:10:42;14.30;1.00
4795;DHT22;2411;47.060;15.064;2022-07-18T00:13:09;14.30;1.00
4795;DHT22;2411;47.060;15.064;2022-07-18T00:15:37;14.30;1.00
4795;DHT22;2411;47.060;15.064;2022-07-18T00:18:04;14.30;1.00
4795;DHT22;2411;47.060;15.064;2022-07-18T00:20:31;14.30;1.00
4795;DHT22;2411;47.060;15.064;2022-07-18T00:22:58;14.30;1.00
4795;DHT22;2411;47.060;15.064;2022-07-18T00:25:25;14.30;1.00
4795;DHT22;2411;47.060;15.064;2022-07-18T00:27:52;14.30;1.00
4795;DHT22;2411;47.060;15.064;2022-07-18T00:30:19;14.20;1.00
4795;DHT22;2411;47.060;15.064;2022-07-18T00:32:46;14.10;1.00
4795;DHT22;2411;47.060;15.064;2022-07-18T00:35:13;14.10;1.00
4795;DHT22;2411;47.060;15.064;2022-07-18T00:37:40;14.10;1.00
4795;DHT22;2411;47.060;15.064;2022-07-18T00:40:08;14.00;1.00
4795;DHT22;2411;47.060;15.064;2022-07-18T00:42:35;14.00;1.00
4795;DHT22;2411;47.060;15.064;2022-07-18T00:45:02;13.90;1.00
4795;DHT22;2411;47.060;15.064;2022-07-18T00:47:30;14.00;1.00
4795;DHT22;2411;47.060;15.064;2022-07-18T00:49:57;14.00;1.00
4795;DHT22;2411;47.060;15.064;2022-07-18T00:52:25;14.00;1.00
4795;DHT22;2411;47.060;15.064;2022-07-18T00:54:52;14.00;1.00
4795;DHT22;2411;47.060;15.064;2022-07-18T00:57:19;14.00;1.00
4795;DHT22;2411;47.060;15.064;2022-07-18T00:59:46;14.00;1.00
4795;DHT22;2411;47.060;15.064;2022-07-18T01:02:33;13.90;1.00
4795;DHT22;2411;47.060;15.064;2022-07-18T01:05:00;13.80;1.00
4795;DHT22;2411;47.060;15.064;2022-07-18T01:07:27;13.80;1.00
4795;DHT22;2411;47.060;15.064;2022-07-18T01:09:54;13.80;1.00
4795;DHT22;2411;47.060;15.064;2022-07-18T01:12:21;13.80;1.00
4795;DHT22;2411;47.060;15.064;2022-07-18T01:14:49;13.80;1.00
4795;DHT22;2411;47.060;15.064;2022-07-18T01:17:17;13.70;1.00
4795;DHT22;2411;47.060;15.064;2022-07-18T01:19:46;13.70;1.00
4795;DHT22;2411;47.060;15.064;2022-07-18T01:22:15;13.60;1.00
4795;DHT22;2411;47.060;15.064;2022-07-18T01:24:43;13.60;1.00
4795;DHT22;2411;47.060;15.064;2022-07-18T01:27:18;13.60;1.00
4795;DHT22;2411;47.060;15.064;2022-07-18T01:29:46;13.60;1.00
4795;DHT22;2411;47.060;15.064;2022-07-18T01:32:14;13.50;1.00
4795;DHT22;2411;47.060;15.064;2022-07-18T01:34:42;13.60;1.00
4795;DHT22;2411;47.060;15.064;2022-07-18T01:37:10;13.60;1.00
4795;DHT22;2411;47.060;15.064;2022-07-18T01:39:37;13.60;1.00
4795;DHT22;2411;47.060;15.064;2022-07-18T01:42:07;13.60;1.00
4795;DHT22;2411;47.060;15.064;2022-07-18T01:44:34;13.50;1.00
4795;DHT22;2411;47.060;15.064;2022-07-18T01:47:06;13.60;1.00
4795;DHT22;2411;47.060;15.064;2022-07-18T01:49:34;13.60;1.00
4795;DHT22;2411;47.060;15.064;2022-07-18T01:52:02;13.60;1.00
4795;DHT22;2411;47.060;15.064;2022-07-18T01:54:30;13.60;1.00
4795;DHT22;2411;47.060;15.064;2022-07-18T01:56:59;13.50;1.00
4795;DHT22;2411;47.060;15.064;2022-07-18T01:59:27;13.50;1.00
4795;DHT22;2411;47.060;15.064;2022-07-18T02:01:54;13.50;1.00
4795;DHT22;2411;47.060;15.064;2022-07-18T02:04:21;13.50;1.00
4795;DHT22;2411;47.060;15.064;2022-07-18T02:07:08;13.40;1.00
4795;DHT22;2411;47.060;15.064;2022-07-18T02:09:35;13.40;1.00
4795;DHT22;2411;47.060;15.064;2022-07-18T02:12:02;13.40;1.00
4795;DHT22;2411;47.060;15.064;2022-07-18T02:14:29;13.30;1.00
4795;DHT22;2411;47.060;15.064;2022-07-18T02:16:56;13.30;1.00
4795;DHT22;2411;47.060;15.064;2022-07-18T02:19:23;13.30;1.00
4795;DHT22;2411;47.060;15.064;2022-07-18T02:21:50;13.40;1.00
4795;DHT22;2411;47.060;15.064;2022-07-18T02:24:17;13.40;1.00
4795;DHT22;2411;47.060;15.064;2022-07-18T02:26:45;13.50;1.00
4795;DHT22;2411;47.060;15.064;2022-07-18T02:29:12;13.50;1.00
4795;DHT22;2411;47.060;15.064;2022-07-18T02:31:39;13.40;1.00
4795;DHT22;2411;47.060;15.064;2022-07-18T02:34:06;13.40;1.00
4795;DHT22;2411;47.060;15.064;2022-07-18T02:36:38;13.50;1.00
4795;DHT22;2411;47.060;15.064;2022-07-18T02:39:05;13.40;1.00
4795;DHT22;2411;47.060;15.064;2022-07-18T02:41:34;13.40;1.00
4795;DHT22;2411;47.060;15.064;2022-07-18T02:44:01;13.30;1.00
4795;DHT22;2411;47.060;15.064;2022-07-18T02:46:28;13.20;1.00
4795;DHT22;2411;47.060;15.064;2022-07-18T02:48:56;13.20;1.00
4795;DHT22;2411;47.060;15.064;2022-07-18T02:51:23;13.20;1.00
4795;DHT22;2411;47.060;15.064;2022-07-18T02:53:50;13.20;1.00
4795;DHT22;2411;47.060;15.064;2022-07-18T02:56:17;13.20;1.00
4795;DHT22;2411;47.060;15.064;2022-07-18T02:58:45;13.20;1.00
4795;DHT22;2411;47.060;15.064;2022-07-18T03:01:12;13.20;1.00
4795;DHT22;2411;47.060;15.064;2022-07-18T03:03:39;13.20;1.00
4795;DHT22;2411;47.060;15.064;2022-07-18T03:06:08;13.20;1.00
4795;DHT22;2411;47.060;15.064;2022-07-18T03:08:35;13.20;1.00
4795;DHT22;2411;47.060;15.064;2022-07-18T03:11:02;13.20;1.00
4795;DHT22;2411;47.060;15.064;2022-07-18T03:13:29;13.20;1.00
4795;DHT22;2411;47.060;15.064;2022-07-18T03:15:56;13.20;1.00
4795;DHT22;2411;47.060;15.064;2022-07-18T03:18:23;13.20;1.00
4795;DHT22;2411;47.060;15.064;2022-07-18T03:20:52;13.20;1.00
4795;DHT22;2411;47.060;15.064;2022-07-18T03:23:19;13.10;1.00
4795;DHT22;2411;47.060;15.064;2022-07-18T03:25:46;13.10;1.00
4795;DHT22;2411;47.060;15.064;2022-07-18T03:28:14;13.10;1.00
4795;DHT22;2411;47.060;15.064;2022-07-18T03:30:41;13.10;1.00
4795;DHT22;2411;47.060;15.064;2022-07-18T03:33:09;13.10;1.00
4795;DHT22;2411;47.060;15.064;2022-07-18T03:35:36;13.20;1.00
4795;DHT22;2411;47.060;15.064;2022-07-18T03:38:03;13.20;1.00
4795;DHT22;2411;47.060;15.064;2022-07-18T03:40:31;13.20;1.00
4795;DHT22;2411;47.060;15.064;2022-07-18T03:42:58;13.20;1.00
4795;DHT22;2411;47.060;15.064;2022-07-18T03:45:25;13.20;1.00
4795;DHT22;2411;47.060;15.064;2022-07-18T03:47:52;13.30;1.00
4795;DHT22;2411;47.060;15.064;2022-07-18T03:50:19;13.30;1.00
4795;DHT22;2411;47.060;15.064;2022-07-18T03:52:46;13.30;1.00
4795;DHT22;2411;47.060;15.064;2022-07-18T03:55:13;13.30;1.00
4795;DHT22;2411;47.060;15.064;2022-07-18T03:57:41;13.40;1.00
4795;DHT22;2411;47.060;15.064;2022-07-18T04:00:10;13.40;1.00
4795;DHT22;2411;47.060;15.064;2022-07-18T04:02:45;13.40;1.00
4795;DHT22;2411;47.060;15.064;2022-07-18T04:05:14;13.50;1.00
4795;DHT22;2411;47.060;15.064;2022-07-18T04:07:41;13.50;1.00
4795;DHT22;2411;47.060;15.064;2022-07-18T04:10:10;13.60;1.00
4795;DHT22;2411;47.060;15.064;2022-07-18T04:12:46;13.60;1.00
4795;DHT22;2411;47.060;15.064;2022-07-18T04:15:13;13.70;1.00
4795;DHT22;2411;47.060;15.064;2022-07-18T04:17:40;13.80;1.00
4795;DHT22;2411;47.060;15.064;2022-07-18T04:20:08;13.80;1.00
4795;DHT22;2411;47.060;15.064;2022-07-18T04:22:50;13.90;1.00
4795;DHT22;2411;47.060;15.064;2022-07-18T04:25:19;13.90;1.00
4795;DHT22;2411;47.060;15.064;2022-07-18T04:27:47;14.00;1.00
4795;DHT22;2411;47.060;15.064;2022-07-18T04:30:16;14.00;1.00
4795;DHT22;2411;47.060;15.064;2022-07-18T04:32:43;14.10;1.00
4795;DHT22;2411;47.060;15.064;2022-07-18T04:35:16;14.10;1.00
4795;DHT22;2411;47.060;15.064;2022-07-18T04:37:43;14.20;1.00
4795;DHT22;2411;47.060;15.064;2022-07-18T04:40:11;14.30;1.00
4795;DHT22;2411;47.060;15.064;2022-07-18T04:42:38;14.50;1.00
4795;DHT22;2411;47.060;15.064;2022-07-18T04:45:05;14.60;1.00
4795;DHT22;2411;47.060;15.064;2022-07-18T04:47:33;14.70;1.00
4795;DHT22;2411;47.060;15.064;2022-07-18T04:50:00;14.80;1.00
4795;DHT22;2411;47.060;15.064;2022-07-18T04:52:27;14.90;1.00
4795;DHT22;2411;47.060;15.064;2022-07-18T04:55:01;15.00;1.00
4795;DHT22;2411;47.060;15.064;2022-07-18T04:57:28;15.00;1.00
4795;DHT22;2411;47.060;15.064;2022-07-18T04:59:55;15.20;1.00
4795;DHT22;2411;47.060;15.064;2022-07-18T05:02:22;15.30;1.00
4795;DHT22;2411;47.060;15.064;2022-07-18T05:04:49;15.30;1.00
4795;DHT22;2411;47.060;15.064;2022-07-18T05:07:16;15.40;1.00
4795;DHT22;2411;47.060;15.064;2022-07-18T05:09:43;15.40;1.00
4795;DHT22;2411;47.060;15.064;2022-07-18T05:12:10;15.50;1.00
4795;DHT22;2411;47.060;15.064;2022-07-18T05:14:37;15.50;1.00
4795;DHT22;2411;47.060;15.064;2022-07-18T05:17:05;15.70;1.00
4795;DHT22;2411;47.060;15.064;2022-07-18T05:19:32;15.80;1.00
4795;DHT22;2411;47.060;15.064;2022-07-18T05:21:59;15.90;1.00
4795;DHT22;2411;47.060;15.064;2022-07-18T05:24:26;16.00;1.00
4795;DHT22;2411;47.060;15.064;2022-07-18T05:26:53;16.20;1.00
4795;DHT22;2411;47.060;15.064;2022-07-18T05:29:20;16.30;1.00
4795;DHT22;2411;47.060;15.064;2022-07-18T05:31:47;16.40;1.00
4795;DHT22;2411;47.060;15.064;2022-07-18T05:34:14;16.50;1.00
4795;DHT22;2411;47.060;15.064;2022-07-18T05:36:41;16.70;1.00
4795;DHT22;2411;47.060;15.064;2022-07-18T05:39:08;16.80;1.00
4795;DHT22;2411;47.060;15.064;2022-07-18T05:41:36;16.90;1.00
4795;DHT22;2411;47.060;15.064;2022-07-18T05:44:03;17.10;1.00
4795;DHT22;2411;47.060;15.064;2022-07-18T05:46:30;17.20;1.00
4795;DHT22;2411;47.060;15.064;2022-07-18T05:48:58;17.30;1.00
4795;DHT22;2411;47.060;15.064;2022-07-18T05:51:25;17.40;1.00
4795;DHT22;2411;47.060;15.064;2022-07-18T05:53:52;17.50;1.00
4795;DHT22;2411;47.060;15.064;2022-07-18T05:56:19;17.60;1.00
4795;DHT22;2411;47.060;15.064;2022-07-18T05:58:46;17.80;1.00
4795;DHT22;2411;47.060;15.064;2022-07-18T06:01:13;17.90;1.00
4795;DHT22;2411;47.060;15.064;2022-07-18T06:03:44;18.10;1.00
4795;DHT22;2411;47.060;15.064;2022-07-18T06:06:10;18.20;1.00
4795;DHT22;2411;47.060;15.064;2022-07-18T06:08:38;18.30;1.00
4795;DHT22;2411;47.060;15.064;2022-07-18T06:11:05;18.50;1.00
4795;DHT22;2411;47.060;15.064;2022-07-18T06:13:35;18.50;1.00
4795;DHT22;2411;47.060;15.064;2022-07-18T06:16:02;18.60;1.00
4795;DHT22;2411;47.060;15.064;2022-07-18T06:18:29;18.60;1.00
4795;DHT22;2411;47.060;15.064;2022-07-18T06:20:56;18.80;1.00
4795;DHT22;2411;47.060;15.064;2022-07-18T06:23:23;18.90;1.00
4795;DHT22;2411;47.060;15.064;2022-07-18T06:25:52;19.00;1.00
4795;DHT22;2411;47.060;15.064;2022-07-18T06:28:19;19.10;1.00
4795;DHT22;2411;47.060;15.064;2022-07-18T06:30:46;19.10;1.00
4795;DHT22;2411;47.060;15.064;2022-07-18T06:33:13;19.20;1.00
4795;DHT22;2411;47.060;15.064;2022-07-18T06:35:40;19.30;1.00
4795;DHT22;2411;47.060;15.064;2022-07-18T06:38:07;19.30;1.00
4795;DHT22;2411;47.060;15.064;2022-07-18T06:40:34;19.40;1.00
4795;DHT22;2411;47.060;15.064;2022-07-18T06:43:01;19.50;1.00
4795;DHT22;2411;47.060;15.064;2022-07-18T06:45:28;19.60;1.00
4795;DHT22;2411;47.060;15.064;2022-07-18T06:47:55;19.70;1.00
4795;DHT22;2411;47.060;15.064;2022-07-18T06:50:22;19.70;1.00
4795;DHT22;2411;47.060;15.064;2022-07-18T06:52:49;19.90;1.00
4795;DHT22;2411;47.060;15.064;2022-07-18T06:55:17;20.00;1.00
4795;DHT22;2411;47.060;15.064;2022-07-18T06:57:44;20.10;1.00
4795;DHT22;2411;47.060;15.064;2022-07-18T07:00:14;20.20;1.00
4795;DHT22;2411;47.060;15.064;2022-07-18T07:02:46;20.30;1.00
4795;DHT22;2411;47.060;15.064;2022-07-18T07:05:15;20.50;1.00
4795;DHT22;2411;47.060;15.064;2022-07-18T07:07:43;20.60;1.00
4795;DHT22;2411;47.060;15.064;2022-07-18T07:10:15;20.70;1.00
4795;DHT22;2411;47.060;15.064;2022-07-18T07:12:47;20.80;1.00
4795;DHT22;2411;47.060;15.064;2022-07-18T07:15:17;20.90;1.00
4795;DHT22;2411;47.060;15.064;2022-07-18T07:17:44;21.00;1.00
4795;DHT22;2411;47.060;15.064;2022-07-18T07:20:12;21.00;1.00
4795;DHT22;2411;47.060;15.064;2022-07-18T07:22:51;21.20;1.00
4795;DHT22;2411;47.060;15.064;2022-07-18T07:25:20;21.30;1.00
4795;DHT22;2411;47.060;15.064;2022-07-18T07:27:47;21.40;1.00
4795;DHT22;2411;47.060;15.064;2022-07-18T07:30:15;21.50;1.00
4795;DHT22;2411;47.060;15.064;2022-07-18T07:32:43;21.60;1.00
4795;DHT22;2411;47.060;15.064;2022-07-18T07:35:12;21.70;1.00
4795;DHT22;2411;47.060;15.064;2022-07-18T07:37:42;21.70;1.00
4795;DHT22;2411;47.060;15.064;2022-07-18T07:40:10;21.90;1.00
4795;DHT22;2411;47.060;15.064;2022-07-18T07:42:37;21.90;1.00
4795;DHT22;2411;47.060;15.064;2022-07-18T07:45:05;22.00;1.00
4795;DHT22;2411;47.060;15.064;2022-07-18T07:47:32;22.10;1.00
4795;DHT22;2411;47.060;15.064;2022-07-18T07:49:59;22.20;1.00
4795;DHT22;2411;47.060;15.064;2022-07-18T07:52:26;22.10;1.00
4795;DHT22;2411;47.060;15.064;2022-07-18T07:54:54;22.30;1.00
4795;DHT22;2411;47.060;15.064;2022-07-18T07:57:21;22.40;1.00
4795;DHT22;2411;47.060;15.064;2022-07-18T07:59:49;22.40;1.00
4795;DHT22;2411;47.060;15.064;2022-07-18T08:02:16;22.50;1.00
4795;DHT22;2411;47.060;15.064;2022-07-18T08:04:43;22.60;1.00
4795;DHT22;2411;47.060;15.064;2022-07-18T08:07:10;22.70;1.00
4795;DHT22;2411;47.060;15.064;2022-07-18T08:09:38;22.80;1.00
4795;DHT22;2411;47.060;15.064;2022-07-18T08:12:05;22.90;1.00
4795;DHT22;2411;47.060;15.064;2022-07-18T08:14:32;23.00;1.00
4795;DHT22;2411;47.060;15.064;2022-07-18T08:17:00;23.10;1.00
4795;DHT22;2411;47.060;15.064;2022-07-18T08:19:27;23.10;1.00
4795;DHT22;2411;47.060;15.064;2022-07-18T08:21:54;23.10;1.00
4795;DHT22;2411;47.060;15.064;2022-07-18T08:24:21;23.20;1.00
4795;DHT22;2411;47.060;15.064;2022-07-18T08:26:48;23.30;1.00
4795;DHT22;2411;47.060;15.064;2022-07-18T08:29:15;23.40;1.00
4795;DHT22;2411;47.060;15.064;2022-07-18T08:31:42;23.50;1.00
4795;DHT22;2411;47.060;15.064;2022-07-18T08:34:09;23.50;1.00
4795;DHT22;2411;47.060;15.064;2022-07-18T08:36:36;23.60;1.00
4795;DHT22;2411;47.060;15.064;2022-07-18T08:39:05;23.70;1.00
4795;DHT22;2411;47.060;15.064;2022-07-18T08:41:32;23.80;1.00
4795;DHT22;2411;47.060;15.064;2022-07-18T08:44:00;24.00;1.00
4795;DHT22;2411;47.060;15.064;2022-07-18T08:46:29;24.10;1.00
4795;DHT22;2411;47.060;15.064;2022-07-18T08:48:56;24.20;1.00
4795;DHT22;2411;47.060;15.064;2022-07-18T08:51:24;24.30;1.00
4795;DHT22;2411;47.060;15.064;2022-07-18T08:53:51;24.30;1.00
4795;DHT22;2411;47.060;15.064;2022-07-18T08:56:19;24.30;1.00
4795;DHT22;2411;47.060;15.064;2022-07-18T08:58:46;24.50;1.00
4795;DHT22;2411;47.060;15.064;2022-07-18T09:01:13;24.50;1.00
4795;DHT22;2411;47.060;15.064;2022-07-18T09:03:41;24.50;1.00
4795;DHT22;2411;47.060;15.064;2022-07-18T09:06:12;24.60;1.00
4795;DHT22;2411;47.060;15.064;2022-07-18T09:08:57;24.60;1.00
4795;DHT22;2411;47.060;15.064;2022-07-18T09:11:24;24.70;1.00
4795;DHT22;2411;47.060;15.064;2022-07-18T09:14:40;24.80;1.00
4795;DHT22;2411;47.060;15.064;2022-07-18T09:17:23;24.90;1.00
4795;DHT22;2411;47.060;15.064;2022-07-18T09:22:30;24.90;1.00
4795;DHT22;2411;47.060;15.064;2022-07-18T09:24:59;24.90;1.00
4795;DHT22;2411;47.060;15.064;2022-07-18T09:30:14;25.00;1.00
4795;DHT22;2411;47.060;15.064;2022-07-18T09:32:45;25.00;1.00
4795;DHT22;2411;47.060;15.064;2022-07-18T09:35:14;25.10;1.00
4795;DHT22;2411;47.060;15.064;2022-07-18T09:40:33;25.00;1.00
4795;DHT22;2411;47.060;15.064;2022-07-18T09:43:03;25.10;1.00
4795;DHT22;2411;47.060;15.064;2022-07-18T09:45:31;25.30;1.00
4795;DHT22;2411;47.060;15.064;2022-07-18T09:48:12;25.40;1.00
4795;DHT22;2411;47.060;15.064;2022-07-18T09:51:02;25.40;1.00
4795;DHT22;2411;47.060;15.064;2022-07-18T09:56:03;25.50;1.00
4795;DHT22;2411;47.060;15.064;2022-07-18T09:58:38;25.50;1.00
4795;DHT22;2411;47.060;15.064;2022-07-18T10:01:09;25.60;1.00
4795;DHT22;2411;47.060;15.064;2022-07-18T10:03:36;25.60;1.00
4795;DHT22;2411;47.060;15.064;2022-07-18T10:06:04;25.70;1.00
4795;DHT22;2411;47.060;15.064;2022-07-18T10:08:32;25.80;1.00
4795;DHT22;2411;47.060;15.064;2022-07-18T10:11:01;25.90;1.00
4795;DHT22;2411;47.060;15.064;2022-07-18T10:13:31;26.00;1.00
4795;DHT22;2411;47.060;15.064;2022-07-18T10:15:59;26.00;1.00
4795;DHT22;2411;47.060;15.064;2022-07-18T10:18:30;26.10;1.00
4795;DHT22;2411;47.060;15.064;2022-07-18T10:21:11;26.20;1.00
4795;DHT22;2411;47.060;15.064;2022-07-18T10:31:34;26.40;1.00
4795;DHT22;2411;47.060;15.064;2022-07-18T10:37:23;26.40;1.00
4795;DHT22;2411;47.060;15.064;2022-07-18T10:39:42;26.50;1.00
4795;DHT22;2411;47.060;15.064;2022-07-18T10:42:13;26.50;1.00
4795;DHT22;2411;47.060;15.064;2022-07-18T10:44:40;26.50;1.00
4795;DHT22;2411;47.060;15.064;2022-07-18T10:47:12;26.60;1.00
4795;DHT22;2411;47.060;15.064;2022-07-18T10:55:26;26.70;1.00
4795;DHT22;2411;47.060;15.064;2022-07-18T11:00:31;26.70;1.00
4795;DHT22;2411;47.060;15.064;2022-07-18T11:24:08;27.10;1.00
4795;DHT22;2411;47.060;15.064;2022-07-18T11:26:38;27.00;1.00
4795;DHT22;2411;47.060;15.064;2022-07-18T11:29:12;27.10;1.00
4795;DHT22;2411;47.060;15.064;2022-07-18T11:31:50;27.20;1.00
4795;DHT22;2411;47.060;15.064;2022-07-18T11:34:19;27.30;1.00
4795;DHT22;2411;47.060;15.064;2022-07-18T11:37:02;27.20;1.00
4795;DHT22;2411;47.060;15.064;2022-07-18T11:39:31;27.20;1.00
4795;DHT22;2411;47.060;15.064;2022-07-18T11:41:58;27.30;1.00
4795;DHT22;2411;47.060;15.064;2022-07-18T11:44:25;27.40;1.00
4795;DHT22;2411;47.060;15.064;2022-07-18T11:47:07;27.40;1.00
4795;DHT22;2411;47.060;15.064;2022-07-18T11:49:34;27.50;1.00
4795;DHT22;2411;47.060;15.064;2022-07-18T11:52:03;27.50;1.00
4795;DHT22;2411;47.060;15.064;2022-07-18T11:54:30;27.40;1.00
4795;DHT22;2411;47.060;15.064;2022-07-18T11:56:59;27.50;1.00
4795;DHT22;2411;47.060;15.064;2022-07-18T11:59:38;27.60;1.00
4795;DHT22;2411;47.060;15.064;2022-07-18T12:02:06;27.60;1.00
4795;DHT22;2411;47.060;15.064;2022-07-18T12:04:34;27.60;1.00
4795;DHT22;2411;47.060;15.064;2022-07-18T12:07:23;27.60;1.00
4795;DHT22;2411;47.060;15.064;2022-07-18T12:09:51;27.60;1.00
4795;DHT22;2411;47.060;15.064;2022-07-18T12:12:20;27.50;1.00
4795;DHT22;2411;47.060;15.064;2022-07-18T12:15:07;27.60;1.00
4795;DHT22;2411;47.060;15.064;2022-07-18T12:17:45;27.60;1.00
4795;DHT22;2411;47.060;15.064;2022-07-18T12:20:21;27.70;1.00
4795;DHT22;2411;47.060;15.064;2022-07-18T12:25:41;27.70;1.00
4795;DHT22;2411;47.060;15.064;2022-07-18T12:28:16;27.80;1.00
4795;DHT22;2411;47.060;15.064;2022-07-18T12:30:44;27.80;1.00
4795;DHT22;2411;47.060;15.064;2022-07-18T12:33:11;27.90;1.00
4795;DHT22;2411;47.060;15.064;2022-07-18T12:35:39;27.90;1.00
4795;DHT22;2411;47.060;15.064;2022-07-18T12:40:42;27.90;1.00
4795;DHT22;2411;47.060;15.064;2022-07-18T12:43:24;27.80;1.00
4795;DHT22;2411;47.060;15.064;2022-07-18T12:45:53;27.90;1.00
4795;DHT22;2411;47.060;15.064;2022-07-18T12:48:20;27.80;1.00
4795;DHT22;2411;47.060;15.064;2022-07-18T12:51:02;27.80;1.00
4795;DHT22;2411;47.060;15.064;2022-07-18T12:53:31;27.80;1.00
4795;DHT22;2411;47.060;15.064;2022-07-18T12:55:59;27.80;1.00
4795;DHT22;2411;47.060;15.064;2022-07-18T12:58:26;27.90;1.00
4795;DHT22;2411;47.060;15.064;2022-07-18T13:00:53;27.90;1.00
4795;DHT22;2411;47.060;15.064;2022-07-18T13:03:32;28.00;1.00
4795;DHT22;2411;47.060;15.064;2022-07-18T13:06:00;28.00;1.00
4795;DHT22;2411;47.060;15.064;2022-07-18T13:08:27;27.90;1.00
4795;DHT22;2411;47.060;15.064;2022-07-18T13:10:55;27.90;1.00
4795;DHT22;2411;47.060;15.064;2022-07-18T13:13:22;28.00;1.00
4795;DHT22;2411;47.060;15.064;2022-07-18T13:15:49;28.10;1.00
4795;DHT22;2411;47.060;15.064;2022-07-18T13:18:16;28.10;1.00
4795;DHT22;2411;47.060;15.064;2022-07-18T13:20:43;27.90;1.00
4795;DHT22;2411;47.060;15.064;2022-07-18T13:23:10;28.00;1.00
4795;DHT22;2411;47.060;15.064;2022-07-18T13:25:38;27.90;1.00
4795;DHT22;2411;47.060;15.064;2022-07-18T13:28:06;28.00;1.00
4795;DHT22;2411;47.060;15.064;2022-07-18T13:30:33;28.00;1.00
4795;DHT22;2411;47.060;15.064;2022-07-18T13:33:00;28.00;1.00
4795;DHT22;2411;47.060;15.064;2022-07-18T13:35:27;28.00;1.00
4795;DHT22;2411;47.060;15.064;2022-07-18T13:37:54;28.10;1.00
4795;DHT22;2411;47.060;15.064;2022-07-18T13:40:22;28.10;1.00
4795;DHT22;2411;47.060;15.064;2022-07-18T13:42:54;28.10;1.00
4795;DHT22;2411;47.060;15.064;2022-07-18T13:45:21;28.10;1.00
4795;DHT22;2411;47.060;15.064;2022-07-18T13:47:48;28.10;1.00
4795;DHT22;2411;47.060;15.064;2022-07-18T13:50:16;28.10;1.00
4795;DHT22;2411;47.060;15.064;2022-07-18T13:52:43;28.20;1.00
4795;DHT22;2411;47.060;15.064;2022-07-18T13:55:10;28.20;1.00
4795;DHT22;2411;47.060;15.064;2022-07-18T13:57:37;28.00;1.00
4795;DHT22;2411;47.060;15.064;2022-07-18T14:00:07;28.10;1.00
4795;DHT22;2411;47.060;15.064;2022-07-18T14:02:35;28.10;1.00
4795;DHT22;2411;47.060;15.064;2022-07-18T14:05:03;28.20;1.00
4795;DHT22;2411;47.060;15.064;2022-07-18T14:07:44;28.30;1.00
4795;DHT22;2411;47.060;15.064;2022-07-18T14:10:12;28.30;1.00
4795;DHT22;2411;47.060;15.064;2022-07-18T14:12:39;28.40;1.00
4795;DHT22;2411;47.060;15.064;2022-07-18T14:15:07;28.40;1.00
4795;DHT22;2411;47.060;15.064;2022-07-18T14:17:35;28.40;1.00
4795;DHT22;2411;47.060;15.064;2022-07-18T14:20:02;28.30;1.00
4795;DHT22;2411;47.060;15.064;2022-07-18T14:22:30;28.40;1.00
4795;DHT22;2411;47.060;15.064;2022-07-18T14:24:57;28.40;1.00
4795;DHT22;2411;47.060;15.064;2022-07-18T14:27:24;28.50;1.00
4795;DHT22;2411;47.060;15.064;2022-07-18T14:29:51;28.40;1.00
4795;DHT22;2411;47.060;15.064;2022-07-18T14:32:18;28.50;1.00
4795;DHT22;2411;47.060;15.064;2022-07-18T14:34:46;28.50;1.00
4795;DHT22;2411;47.060;15.064;2022-07-18T14:37:13;28.40;1.00
4795;DHT22;2411;47.060;15.064;2022-07-18T14:39:40;28.40;1.00
4795;DHT22;2411;47.060;15.064;2022-07-18T14:42:07;28.50;1.00
4795;DHT22;2411;47.060;15.064;2022-07-18T14:44:35;28.50;1.00
4795;DHT22;2411;47.060;15.064;2022-07-18T14:47:02;28.30;1.00
4795;DHT22;2411;47.060;15.064;2022-07-18T14:49:29;28.20;1.00
4795;DHT22;2411;47.060;15.064;2022-07-18T14:51:57;28.30;1.00
4795;DHT22;2411;47.060;15.064;2022-07-18T14:54:25;28.30;1.00
4795;DHT22;2411;47.060;15.064;2022-07-18T14:56:52;28.40;1.00
4795;DHT22;2411;47.060;15.064;2022-07-18T14:59:19;28.40;1.00
4795;DHT22;2411;47.060;15.064;2022-07-18T15:01:47;28.50;1.00
4795;DHT22;2411;47.060;15.064;2022-07-18T15:04:15;28.40;1.00
4795;DHT22;2411;47.060;15.064;2022-07-18T15:06:44;28.40;1.00
4795;DHT22;2411;47.060;15.064;2022-07-18T15:09:12;28.40;1.00
4795;DHT22;2411;47.060;15.064;2022-07-18T15:11:42;28.50;1.00
4795;DHT22;2411;47.060;15.064;2022-07-18T15:14:09;28.50;1.00
4795;DHT22;2411;47.060;15.064;2022-07-18T15:16:37;28.50;1.00
4795;DHT22;2411;47.060;15.064;2022-07-18T15:19:04;28.50;1.00
4795;DHT22;2411;47.060;15.064;2022-07-18T15:21:31;28.40;1.00
4795;DHT22;2411;47.060;15.064;2022-07-18T15:23:59;28.50;1.00
4795;DHT22;2411;47.060;15.064;2022-07-18T15:26:26;28.50;1.00
4795;DHT22;2411;47.060;15.064;2022-07-18T15:28:53;28.60;1.00
4795;DHT22;2411;47.060;15.064;2022-07-18T15:31:20;28.60;1.00
4795;DHT22;2411;47.060;15.064;2022-07-18T15:33:47;28.50;1.00
4795;DHT22;2411;47.060;15.064;2022-07-18T15:36:14;28.50;1.00
4795;DHT22;2411;47.060;15.064;2022-07-18T15:38:41;28.60;1.00
4795;DHT22;2411;47.060;15.064;2022-07-18T15:41:10;28.60;1.00
4795;DHT22;2411;47.060;15.064;2022-07-18T15:43:39;28.60;1.00
4795;DHT22;2411;47.060;15.064;2022-07-18T15:46:08;28.60;1.00
4795;DHT22;2411;47.060;15.064;2022-07-18T15:48:36;28.70;1.00
4795;DHT22;2411;47.060;15.064;2022-07-18T15:51:03;28.70;1.00
4795;DHT22;2411;47.060;15.064;2022-07-18T15:53:30;28.80;1.00
4795;DHT22;2411;47.060;15.064;2022-07-18T15:55:57;29.00;1.00
4795;DHT22;2411;47.060;15.064;2022-07-18T15:58:24;29.10;1.00
4795;DHT22;2411;47.060;15.064;2022-07-18T16:00:52;29.10;1.00
4795;DHT22;2411;47.060;15.064;2022-07-18T16:03:20;29.30;1.00
4795;DHT22;2411;47.060;15.064;2022-07-18T16:05:47;29.40;1.00
4795;DHT22;2411;47.060;15.064;2022-07-18T16:08:14;29.60;1.00
4795;DHT22;2411;47.060;15.064;2022-07-18T16:10:41;29.80;1.00
4795;DHT22;2411;47.060;15.064;2022-07-18T16:13:09;31.30;1.00
4795;DHT22;2411;47.060;15.064;2022-07-18T16:15:36;33.00;1.00
4795;DHT22;2411;47.060;15.064;2022-07-18T16:18:03;34.10;1.00
4795;DHT22;2411;47.060;15.064;2022-07-18T16:20:31;34.70;1.00
4795;DHT22;2411;47.060;15.064;2022-07-18T16:22:59;35.00;1.00
4795;DHT22;2411;47.060;15.064;2022-07-18T16:25:26;35.40;1.00
4795;DHT22;2411;47.060;15.064;2022-07-18T16:27:53;35.70;1.00
4795;DHT22;2411;47.060;15.064;2022-07-18T16:30:20;36.20;1.00
4795;DHT22;2411;47.060;15.064;2022-07-18T16:32:47;36.40;1.00
4795;DHT22;2411;47.060;15.064;2022-07-18T16:35:14;35.90;1.00
4795;DHT22;2411;47.060;15.064;2022-07-18T16:37:41;36.10;1.00
4795;DHT22;2411;47.060;15.064;2022-07-18T16:40:09;36.20;1.00
4795;DHT22;2411;47.060;15.064;2022-07-18T16:42:37;36.80;1.00
4795;DHT22;2411;47.060;15.064;2022-07-18T16:45:05;37.50;1.00
4795;DHT22;2411;47.060;15.064;2022-07-18T16:47:33;38.50;1.00
4795;DHT22;2411;47.060;15.064;2022-07-18T16:50:00;39.00;1.00
4795;DHT22;2411;47.060;15.064;2022-07-18T16:52:28;39.20;1.00
4795;DHT22;2411;47.060;15.064;2022-07-18T16:54:55;39.50;1.00
4795;DHT22;2411;47.060;15.064;2022-07-18T16:57:23;39.40;1.00
4795;DHT22;2411;47.060;15.064;2022-07-18T16:59:51;39.10;1.00
4795;DHT22;2411;47.060;15.064;2022-07-18T17:02:28;38.80;1.00
4795;DHT22;2411;47.060;15.064;2022-07-18T17:04:56;37.80;1.00
4795;DHT22;2411;47.060;15.064;2022-07-18T17:07:23;36.80;1.00